createdAt,value
2023-03-06T00:06:50.751Z,38.51
2023-03-06T00:16:55.849Z,38.63
2023-03-06T00:26:57.397Z,38.83
2023-03-06T00:36:58.920Z,38.89
2023-03-06T00:47:00.299Z,39.08
2023-03-06T00:57:01.691Z,39.33
2023-03-06T01:07:03.103Z,39.30
2023-03-06T01:17:04.505Z,39.32
2023-03-06T01:27:05.902Z,39.54
2023-03-06T01:37:07.287Z,39.59
2023-03-06T01:47:08.697Z,39.57
2023-03-06T01:57:24.083Z,39.55
2023-03-06T02:07:25.464Z,39.35
2023-03-06T02:17:26.848Z,39.36
2023-03-06T02:27:28.219Z,39.15
2023-03-06T02:37:29.586Z,38.79
2023-03-06T02:47:31.139Z,38.79
2023-03-06T02:57:32.531Z,38.49
2023-03-06T03:07:33.892Z,38.44
2023-03-06T03:17:36.515Z,38.20
2023-03-06T03:27:38.114Z,38.32
2023-03-06T03:37:39.712Z,38.17
2023-03-06T03:47:41.290Z,38.24
2023-03-06T03:57:43.049Z,38.48
2023-03-06T04:07:44.501Z,38.57
2023-03-06T04:17:45.941Z,38.66
2023-03-06T04:27:47.308Z,38.65
2023-03-06T04:37:48.873Z,38.82
2023-03-06T04:47:50.257Z,38.94
2023-03-06T04:57:51.654Z,39.09
2023-03-06T05:07:53.292Z,39.07
2023-03-06T05:17:56.306Z,38.81
2023-03-06T05:27:58.308Z,38.60
2023-03-06T05:37:59.679Z,38.43
2023-03-06T05:48:01.084Z,38.19
2023-03-06T05:58:02.506Z,38.10
2023-03-06T06:08:04.041Z,38.02
2023-03-06T06:18:05.486Z,38.06
2023-03-06T06:28:06.870Z,38.02
2023-03-06T06:38:08.260Z,38.22
2023-03-06T06:48:10.302Z,38.37
2023-03-06T06:58:11.770Z,38.29
2023-03-06T07:08:13.162Z,38.15
2023-03-06T07:18:14.558Z,38.16
2023-03-06T07:28:18.690Z,38.05
2023-03-06T07:38:20.998Z,37.97
2023-03-06T07:48:22.378Z,38.06
2023-03-06T07:58:24.060Z,38.31
2023-03-06T08:08:25.599Z,38.24
2023-03-06T08:18:27.596Z,38.03
2023-03-06T08:28:29.219Z,37.95
2023-03-06T08:38:30.587Z,37.99
2023-03-06T08:48:31.966Z,38.21
2023-03-06T08:58:33.410Z,38.27
2023-03-06T09:08:34.808Z,38.35
2023-03-06T09:18:36.465Z,38.31
2023-03-06T09:28:38.869Z,38.04
2023-03-06T09:38:40.395Z,37.95
2023-03-06T09:48:51.659Z,38.02
2023-03-06T09:58:55.428Z,38.02
2023-03-06T10:09:14.271Z,38.04
2023-03-06T10:19:17.987Z,38.19
2023-03-06T10:29:43.662Z,38.12
2023-03-06T10:39:47.056Z,38.06
2023-03-06T10:49:57.566Z,37.95
2023-03-06T11:00:05.135Z,38.12
2023-03-06T11:10:26.941Z,38.21
2023-03-06T11:20:51.492Z,38.21
2023-03-06T11:31:06.054Z,38.23
2023-03-06T11:41:14.361Z,38.19
2023-03-06T11:51:48.055Z,38.12
2023-03-06T12:02:23.618Z,38.02
2023-03-06T12:12:49.948Z,38.14
2023-03-06T12:23:14.432Z,38.19
2023-03-06T12:33:32.610Z,38.30
2023-03-06T12:43:46.144Z,38.24
2023-03-06T12:53:47.875Z,38.30
2023-03-06T13:03:59.569Z,38.13
2023-03-06T13:14:01.106Z,38.16
2023-03-06T13:24:04.482Z,38.08
2023-03-06T13:34:26.358Z,38.03
2023-03-06T13:44:28.186Z,38.00
2023-03-06T13:55:03.542Z,37.90
2023-03-06T14:05:11.815Z,37.92
2023-03-06T14:15:18.983Z,37.89
2023-03-06T14:25:28.072Z,37.91
2023-03-06T14:35:30.563Z,37.99
2023-03-06T14:45:32.033Z,38.18
2023-03-06T14:55:34.629Z,38.16
2023-03-06T15:05:36.206Z,38.41
2023-03-06T15:15:38.186Z,38.37
2023-03-06T15:25:39.717Z,38.39
2023-03-06T15:35:41.132Z,38.47
2023-03-06T15:45:42.533Z,38.50
2023-03-06T15:55:43.937Z,38.53
2023-03-06T16:05:45.339Z,38.54
2023-03-06T16:15:48.542Z,38.60
2023-03-06T16:25:50.079Z,38.72
2023-03-06T16:35:51.533Z,38.92
2023-03-06T16:45:53.060Z,38.88
2023-03-06T16:55:54.553Z,38.93
2023-03-06T17:05:56.011Z,39.12
2023-03-06T17:15:59.292Z,39.13
2023-03-06T17:26:05.084Z,39.23
2023-03-06T17:36:06.967Z,39.28
2023-03-06T17:46:09.762Z,39.35
2023-03-06T17:56:12.492Z,39.22
2023-03-06T18:06:14.182Z,39.48
2023-03-06T18:16:18.237Z,39.52
2023-03-06T18:26:20.625Z,39.53
2023-03-06T18:36:22.952Z,39.58
2023-03-06T18:46:24.550Z,39.53
2023-03-06T18:56:26.144Z,39.68
2023-03-06T19:06:28.015Z,39.73
2023-03-06T19:16:30.194Z,39.70
2023-03-06T19:26:31.620Z,39.71
2023-03-06T19:36:34.121Z,39.85
2023-03-06T19:46:36.042Z,39.80
2023-03-06T19:56:37.454Z,39.72
2023-03-06T20:06:39.116Z,39.75
2023-03-06T20:16:40.752Z,39.60
2023-03-06T20:26:43.205Z,39.41
2023-03-06T20:36:44.596Z,39.09
2023-03-06T20:46:46.165Z,38.77
2023-03-06T20:56:48.507Z,38.73
2023-03-06T21:06:51.880Z,38.41
2023-03-06T21:16:53.411Z,38.32
2023-03-06T21:26:54.803Z,38.25
2023-03-06T21:36:56.334Z,38.31
2023-03-06T21:46:57.742Z,38.40
2023-03-06T21:56:59.145Z,38.59
2023-03-06T22:07:00.526Z,38.66
2023-03-06T22:17:01.976Z,38.76
2023-03-06T22:27:03.476Z,38.95
2023-03-06T22:37:05.030Z,39.09
2023-03-06T22:47:06.430Z,39.45
2023-03-06T22:57:07.995Z,39.66
2023-03-06T23:07:09.524Z,39.74
2023-03-06T23:17:11.362Z,39.74
2023-03-06T23:27:12.770Z,39.94
2023-03-06T23:37:14.268Z,39.96
2023-03-06T23:47:17.219Z,39.95
2023-03-06T23:57:18.618Z,39.94
